Time;durP1;ratioP1;P1;durP2;ratioP2;P2;SDS_P1;SDS_P2;PMS_P1;PMS_P2;Temp;Humidity;BMP_temperature;BMP_pressure;BME280_temperature;BME280_humidity;BME280_pressure;Samples;Min_cycle;Max_cycle;Signal;HPM_P1;HPM_P2
2023/09/30 00:02:15;;;;;;;7.00;2.83;;;;;;;12.28;95.59;102400.19;4933859;29;20427;-81
2023/09/30 00:04:41;;;;;;;7.00;3.13;;;;;;;12.29;96.07;102412.38;4935104;29;20051;-82
2023/09/30 00:07:06;;;;;;;6.55;2.95;;;;;;;12.30;96.19;102414.06;4935064;29;20475;-82
2023/09/30 00:09:31;;;;;;;7.85;3.13;;;;;;;12.29;96.45;102408.88;4949704;29;20035;-82
2023/09/30 00:11:57;;;;;;;8.75;3.35;;;;;;;12.29;96.97;102412.38;4953818;29;20053;-82
2023/09/30 00:14:22;;;;;;;7.50;3.30;;;;;;;12.28;96.86;102410.63;4952305;28;20091;-82
2023/09/30 00:16:47;;;;;;;6.55;3.13;;;;;;;12.30;96.81;102413.22;4954060;28;20102;-82
2023/09/30 00:19:13;;;;;;;7.72;3.63;;;;;;;12.29;96.56;102412.38;4946122;29;20467;-83
2023/09/30 00:21:38;;;;;;;8.48;3.30;;;;;;;12.29;96.80;102414.97;4941804;29;20019;-82
2023/09/30 00:24:04;;;;;;;7.57;3.58;;;;;;;12.29;97.03;102417.59;4947862;28;20535;-81
2023/09/30 00:26:29;;;;;;;8.95;3.78;;;;;;;12.29;97.08;102416.72;4939626;29;20506;-82
2023/09/30 00:28:54;;;;;;;6.10;3.33;;;;;;;12.27;97.27;102408.91;4935110;29;20035;-82
2023/09/30 00:31:20;;;;;;;9.13;3.38;;;;;;;12.28;97.31;102410.63;4953477;29;20033;-82
2023/09/30 00:33:45;;;;;;;7.75;3.50;;;;;;;12.27;97.40;102414.13;4935705;29;20381;-82
2023/09/30 00:36:11;;;;;;;6.28;3.50;;;;;;;12.26;97.43;102406.28;4937042;29;20392;-82
2023/09/30 00:38:37;;;;;;;8.52;3.47;;;;;;;12.25;97.65;102413.28;4935058;29;20376;-82
2023/09/30 00:41:02;;;;;;;9.68;3.33;;;;;;;12.25;97.77;102421.09;4939420;29;20024;-82
2023/09/30 00:43:28;;;;;;;9.60;3.63;;;;;;;12.25;97.78;102425.44;4938849;29;20035;-82
2023/09/30 00:46:05;;;;;;;8.43;3.78;;;;;;;12.25;98.12;102438.47;4951435;29;20493;-82
2023/09/30 00:48:31;;;;;;;8.73;3.70;;;;;;;12.26;98.08;102438.47;4935900;29;20019;-82
2023/09/30 00:50:57;;;;;;;9.90;3.97;;;;;;;12.26;97.96;102430.66;4944268;29;20413;-81
2023/09/30 00:53:23;;;;;;;6.85;3.70;;;;;;;12.29;98.08;102435.84;4949910;28;20031;-81
2023/09/30 00:55:48;;;;;;;7.57;3.90;;;;;;;12.28;97.97;102436.72;4945071;29;20024;-82
2023/09/30 00:58:13;;;;;;;8.45;3.72;;;;;;;12.29;98.07;102430.63;4948705;29;20360;-82
2023/09/30 01:00:39;;;;;;;8.13;3.72;;;;;;;12.28;98.07;102415.84;4952724;28;20027;-82
2023/09/30 01:03:05;;;;;;;6.78;3.55;;;;;;;12.27;98.09;102411.50;4948818;28;20019;-82
2023/09/30 01:05:31;;;;;;;9.05;3.85;;;;;;;12.26;98.18;102415.00;4937770;28;20039;-82
2023/09/30 01:07:56;;;;;;;8.82;3.70;;;;;;;12.26;97.86;102421.94;4946479;29;20027;-81
2023/09/30 01:10:22;;;;;;;10.50;4.25;;;;;;;12.25;97.97;102430.66;4937615;29;20634;-82
2023/09/30 01:12:47;;;;;;;8.10;3.95;;;;;;;12.24;97.99;102442.84;4935008;29;20158;-82
2023/09/30 01:15:13;;;;;;;8.23;4.07;;;;;;;12.23;98.23;102446.34;4937963;29;20038;-82
2023/09/30 01:17:38;;;;;;;9.43;4.10;;;;;;;12.23;98.30;102448.94;4953090;29;20031;-82
2023/09/30 01:20:08;;;;;;;6.95;3.90;;;;;;;12.21;98.27;102432.41;4953551;29;20079;-81
2023/09/30 01:22:34;;;;;;;8.23;3.92;;;;;;;12.21;98.54;102439.41;4938467;28;20059;-81
2023/09/30 01:24:59;;;;;;;8.02;4.07;;;;;;;12.18;98.30;102437.66;4934723;29;20106;-82
2023/09/30 01:27:25;;;;;;;9.15;3.83;;;;;;;12.19;98.63;102455.03;4945909;29;20382;-82
2023/09/30 01:29:50;;;;;;;8.60;3.88;;;;;;;12.19;98.72;102465.47;4943083;29;20472;-82
2023/09/30 01:32:16;;;;;;;8.32;4.20;;;;;;;12.19;98.70;102473.31;4937938;29;20031;-82
2023/09/30 01:34:41;;;;;;;9.18;4.32;;;;;;;12.19;98.79;102473.31;4938419;29;20043;-82
2023/09/30 01:37:07;;;;;;;8.38;4.25;;;;;;;12.18;98.55;102465.50;4955614;29;20023;-82
2023/09/30 01:39:32;;;;;;;8.68;4.40;;;;;;;12.16;98.55;102462.88;4956884;29;20487;-82
2023/09/30 01:41:59;;;;;;;7.70;4.07;;;;;;;12.15;98.48;102461.16;4955780;29;20026;-82
2023/09/30 01:44:25;;;;;;;6.80;3.83;;;;;;;12.14;98.58;102456.81;4942610;28;20023;-82
2023/09/30 01:46:51;;;;;;;7.93;4.20;;;;;;;12.10;97.15;102458.56;4956543;28;20027;-81
2023/09/30 01:49:18;;;;;;;9.15;4.22;;;;;;;12.08;97.97;102469.91;4957005;28;20039;-82
2023/09/30 01:51:43;;;;;;;7.38;4.15;;;;;;;12.07;98.36;102462.97;4955067;29;20551;-82
2023/09/30 01:54:08;;;;;;;7.72;4.43;;;;;;;12.04;98.66;102442.09;4944270;28;20035;-82
2023/09/30 01:56:33;;;;;;;7.40;4.50;;;;;;;12.04;98.80;102437.72;4958422;28;20565;-81
2023/09/30 01:58:59;;;;;;;7.72;4.03;;;;;;;12.01;96.96;102437.78;4953961;29;20031;-81
2023/09/30 02:01:24;;;;;;;11.60;4.32;;;;;;;11.95;96.42;102438.66;4950364;29;20027;-82
2023/09/30 02:03:50;;;;;;;9.25;4.60;;;;;;;11.91;96.45;102439.53;4950527;29;20028;-82
2023/09/30 02:06:15;;;;;;;9.27;4.60;;;;;;;11.85;96.24;102431.75;4949358;29;20479;-82
2023/09/30 02:08:41;;;;;;;9.30;5.32;;;;;;;11.84;97.77;102440.44;4938010;29;20392;-82
2023/09/30 02:11:07;;;;;;;10.00;5.43;;;;;;;11.85;98.63;102439.56;4953787;29;20018;-82
2023/09/30 02:13:35;;;;;;;11.68;5.57;;;;;;;11.87;98.77;102434.34;4949536;28;20039;-81
2023/09/30 02:16:01;;;;;;;8.95;4.78;;;;;;;11.87;98.78;102447.41;4951074;29;20071;-82
2023/09/30 02:18:26;;;;;;;9.32;5.20;;;;;;;11.87;99.08;102444.78;4956146;28;20102;-82
2023/09/30 02:20:53;;;;;;;10.95;5.25;;;;;;;11.86;98.83;102461.31;4956177;28;20035;-81
2023/09/30 02:23:18;;;;;;;9.48;4.97;;;;;;;11.86;99.30;102467.38;4950097;28;20023;-82
2023/09/30 02:25:44;;;;;;;10.27;5.03;;;;;;;11.87;99.13;102465.66;4944915;29;20486;-81
2023/09/30 02:28:10;;;;;;;8.57;4.80;;;;;;;11.89;99.13;102467.38;4944095;28;20434;-82
2023/09/30 02:30:35;;;;;;;7.60;4.78;;;;;;;11.89;99.49;102472.59;4949187;29;20050;-81
2023/09/30 02:33:01;;;;;;;9.20;4.90;;;;;;;11.90;99.68;102463.88;4946141;29;20038;-82
2023/09/30 02:35:26;;;;;;;7.93;4.45;;;;;;;11.90;99.53;102465.59;4936964;29;20384;-82
2023/09/30 02:37:52;;;;;;;7.55;4.60;;;;;;;11.90;99.43;102450.84;4946958;28;20508;-82
2023/09/30 02:40:18;;;;;;;7.82;4.43;;;;;;;11.86;97.69;102445.66;4940987;28;20196;-82
2023/09/30 02:42:43;;;;;;;7.65;4.30;;;;;;;11.82;97.48;102461.31;4937994;29;20357;-82
2023/09/30 02:45:10;;;;;;;8.68;4.60;;;;;;;11.80;98.90;102456.97;4954930;28;20592;-82
2023/09/30 02:47:37;;;;;;;8.18;4.90;;;;;;;11.81;99.55;102446.53;4954699;29;20060;-82
2023/09/30 02:50:04;;;;;;;8.07;4.47;;;;;;;11.82;99.73;102447.41;4955641;28;20031;-82
2023/09/30 02:52:30;;;;;;;7.53;4.30;;;;;;;11.82;99.66;102447.41;4955478;28;20019;-82
2023/09/30 02:54:57;;;;;;;8.65;4.68;;;;;;;11.80;99.31;102441.31;4951592;29;20510;-82
2023/09/30 02:57:22;;;;;;;8.55;4.88;;;;;;;11.79;99.34;102442.19;4935177;29;20484;-81
2023/09/30 02:59:48;;;;;;;9.45;4.40;;;;;;;11.75;97.86;102443.97;4935097;29;20054;-81
2023/09/30 03:02:13;;;;;;;7.35;4.25;;;;;;;11.72;97.19;102446.56;4938166;29;20035;-81
2023/09/30 03:04:38;;;;;;;9.32;4.82;;;;;;;11.65;97.37;102437.91;4939611;29;20055;-81
2023/09/30 03:07:04;;;;;;;8.85;4.55;;;;;;;11.62;97.91;102435.31;4941063;29;20058;-82
2023/09/30 03:09:29;;;;;;;8.80;5.00;;;;;;;11.62;99.18;102440.53;4954275;29;20058;-82
2023/09/30 03:11:59;;;;;;;8.70;4.70;;;;;;;11.63;99.28;102442.25;4936130;29;20102;-82
2023/09/30 03:14:24;;;;;;;8.27;4.68;;;;;;;11.63;99.37;102442.25;4953924;28;20023;-82
2023/09/30 03:16:50;;;;;;;9.38;4.82;;;;;;;11.61;99.31;102454.47;4955190;29;20019;-82
2023/09/30 03:19:16;;;;;;;9.07;4.80;;;;;;;11.63;99.67;102439.66;4955151;29;20020;-81
2023/09/30 03:21:41;;;;;;;7.55;4.55;;;;;;;11.62;99.90;102439.69;4954353;29;20033;-82
2023/09/30 03:24:08;;;;;;;8.18;4.85;;;;;;;11.63;99.85;102449.25;4946625;28;20023;-81
2023/09/30 03:26:33;;;;;;;7.88;4.45;;;;;;;11.62;99.99;102450.97;4951815;28;20039;-82
2023/09/30 03:28:58;;;;;;;8.90;4.65;;;;;;;11.62;100.00;102445.75;4954547;28;20035;-82
2023/09/30 03:31:25;;;;;;;8.05;4.80;;;;;;;11.64;100.00;102438.78;4942667;29;20033;-81
2023/09/30 03:33:53;;;;;;;7.57;4.75;;;;;;;11.63;100.00;102434.44;4953056;28;20031;-82
2023/09/30 03:36:19;;;;;;;8.57;4.45;;;;;;;11.63;100.00;102421.41;4940966;28;20099;-81
2023/09/30 03:38:44;;;;;;;7.95;4.65;;;;;;;11.61;100.00;102428.41;4954690;28;20455;-82
2023/09/30 03:41:13;;;;;;;9.30;4.50;;;;;;;11.62;100.00;102437.06;4953702;29;20027;-81
2023/09/30 03:43:40;;;;;;;10.00;5.07;;;;;;;11.60;100.00;102429.28;4945308;29;20066;-81
2023/09/30 03:46:06;;;;;;;6.30;4.15;;;;;;;11.59;100.00;102432.75;4949028;29;20027;-82
2023/09/30 03:48:32;;;;;;;8.50;4.82;;;;;;;11.61;100.00;102435.34;4954362;28;20027;-82
2023/09/30 03:50:57;;;;;;;9.48;5.00;;;;;;;11.60;100.00;102436.22;4943670;28;20411;-82
2023/09/30 03:53:26;;;;;;;8.40;4.53;;;;;;;11.61;100.00;102435.34;4953491;28;20109;-81
2023/09/30 03:55:51;;;;;;;8.60;4.32;;;;;;;11.61;100.00;102444.03;4959631;29;20434;-81
2023/09/30 03:58:18;;;;;;;9.43;4.80;;;;;;;11.62;100.00;102437.94;4951418;29;20035;-82
2023/09/30 04:00:44;;;;;;;9.10;4.80;;;;;;;11.62;100.00;102435.31;4942551;29;20027;-81
2023/09/30 04:03:09;;;;;;;7.93;4.60;;;;;;;11.62;100.00;102429.25;4952080;28;20034;-82
2023/09/30 04:05:36;;;;;;;7.70;4.35;;;;;;;11.61;100.00;102425.78;4953695;29;20054;-82
2023/09/30 04:08:02;;;;;;;8.10;4.80;;;;;;;11.60;100.00;102426.66;4948835;29;20038;-81
2023/09/30 04:10:29;;;;;;;7.85;4.55;;;;;;;11.60;100.00;102433.59;4947270;28;20031;-82
2023/09/30 04:12:55;;;;;;;8.77;4.55;;;;;;;11.59;100.00;102430.16;4943442;29;20027;-82
2023/09/30 04:15:20;;;;;;;8.95;4.78;;;;;;;11.61;100.00;102427.50;4952509;29;20372;-81
2023/09/30 04:17:45;;;;;;;10.38;4.70;;;;;;;11.60;100.00;102434.47;4953877;29;20035;-82
2023/09/30 04:20:15;;;;;;;8.85;4.47;;;;;;;11.59;100.00;102437.09;4950810;28;20467;-82
2023/09/30 04:22:41;;;;;;;7.85;4.43;;;;;;;11.57;100.00;102444.91;4951123;29;20078;-82
2023/09/30 04:25:10;;;;;;;7.32;4.60;;;;;;;11.56;100.00;102437.97;4951905;28;20074;-82
2023/09/30 04:27:37;;;;;;;9.05;5.03;;;;;;;11.53;100.00;102436.22;4938253;29;20114;-82
2023/09/30 04:30:08;;;;;;;9.43;4.70;;;;;;;11.51;100.00;102435.38;4951386;29;20035;-82
2023/09/30 04:32:34;;;;;;;;;;;;;;;11.56;99.54;102435.38;4945042;29;20032;-81
2023/09/30 04:35:00;;;;;;;9.50;4.38;;;;;;;11.54;100.00;102437.09;4937292;29;19919;-82
2023/09/30 04:37:25;;;;;;;8.63;4.70;;;;;;;11.51;100.00;102442.31;4934839;29;20130;-81
2023/09/30 04:39:50;;;;;;;8.10;4.57;;;;;;;11.50;100.00;102436.25;4950315;29;20039;-81
2023/09/30 04:42:17;;;;;;;9.68;4.95;;;;;;;11.48;100.00;102439.72;4953835;29;20033;-81
2023/09/30 04:44:43;;;;;;;9.68;5.22;;;;;;;11.46;100.00;102439.75;4952377;28;20057;-81
2023/09/30 04:47:08;;;;;;;9.50;4.80;;;;;;;11.45;100.00;102442.34;4952457;29;20051;-81
2023/09/30 04:49:34;;;;;;;7.20;4.80;;;;;;;11.45;100.00;102450.16;4939985;29;20468;-81
2023/09/30 04:52:00;;;;;;;8.77;5.18;;;;;;;11.45;100.00;102457.97;4934603;29;20418;-82
2023/09/30 04:54:25;;;;;;;8.98;5.15;;;;;;;11.45;100.00;102465.78;4936470;29;20078;-82
2023/09/30 04:56:51;;;;;;;10.85;5.18;;;;;;;11.45;100.00;102464.06;4940410;29;20495;-81
2023/09/30 04:59:16;;;;;;;9.40;5.10;;;;;;;11.43;100.00;102460.59;4952482;29;20023;-81
2023/09/30 05:01:42;;;;;;;9.55;5.03;;;;;;;11.44;100.00;102451.06;4966625;28;20035;-81
2023/09/30 05:04:07;;;;;;;8.45;4.75;;;;;;;11.44;100.00;102456.28;4957390;28;20027;-81
2023/09/30 05:06:32;;;;;;;11.00;5.35;;;;;;;11.43;100.00;102462.34;4954982;29;20038;-81
2023/09/30 05:08:58;;;;;;;11.02;5.63;;;;;;;11.42;100.00;102463.22;4951329;28;20040;-82
2023/09/30 05:11:24;;;;;;;9.65;5.38;;;;;;;11.42;100.00;102468.44;4939405;29;20038;-81
2023/09/30 05:13:49;;;;;;;9.65;5.35;;;;;;;11.41;100.00;102472.75;4938315;29;20027;-82
2023/09/30 05:16:15;;;;;;;9.40;5.38;;;;;;;11.40;100.00;102471.03;4940827;29;20035;-81
2023/09/30 05:18:41;;;;;;;8.80;5.28;;;;;;;11.39;100.00;102464.97;4946638;29;20034;-82
2023/09/30 05:21:07;;;;;;;10.10;4.97;;;;;;;11.38;100.00;102473.66;4957336;28;20031;-81
2023/09/30 05:23:32;;;;;;;8.63;4.38;;;;;;;11.36;100.00;102475.38;4945871;28;20038;-81
2023/09/30 05:25:58;;;;;;;6.22;3.63;;;;;;;11.29;99.11;102478.88;4950749;29;20387;-81
2023/09/30 05:28:23;;;;;;;6.32;3.85;;;;;;;11.24;98.53;102483.25;4938123;29;20031;-81
2023/09/30 05:30:50;;;;;;;6.50;4.00;;;;;;;11.17;98.22;102484.09;4952946;29;20039;-81
2023/09/30 05:33:16;;;;;;;8.43;4.15;;;;;;;11.10;98.47;102485.88;4952836;29;20058;-81
2023/09/30 05:35:42;;;;;;;6.25;3.83;;;;;;;11.06;98.09;102485.00;4952415;28;20040;-81
2023/09/30 05:38:08;;;;;;;7.38;3.67;;;;;;;11.01;98.08;102489.34;4939853;29;20090;-81
2023/09/30 05:40:33;;;;;;;8.10;3.83;;;;;;;10.96;98.06;102482.41;4944208;29;20031;-81
2023/09/30 05:42:59;;;;;;;4.85;3.20;;;;;;;10.92;97.72;102486.75;4956870;28;20479;-81
2023/09/30 05:45:26;;;;;;;6.13;3.35;;;;;;;10.87;98.44;102491.94;4955519;28;20034;-81
2023/09/30 05:47:52;;;;;;;5.72;3.60;;;;;;;10.84;97.96;102485.88;4943275;28;20158;-81
2023/09/30 05:50:20;;;;;;;6.55;3.92;;;;;;;10.81;97.86;102493.69;4956741;28;20027;-81
2023/09/30 05:52:48;;;;;;;8.50;4.20;;;;;;;10.81;98.79;102488.47;4956579;28;20089;-81
2023/09/30 05:55:16;;;;;;;7.13;4.07;;;;;;;10.83;98.42;102491.94;4951971;28;20191;-81
2023/09/30 05:57:42;;;;;;;6.57;4.15;;;;;;;10.82;98.17;102495.44;4947009;29;20483;-81
2023/09/30 06:00:14;;;;;;;7.78;4.35;;;;;;;10.81;98.33;102494.56;4955526;29;20159;-81
2023/09/30 06:02:39;;;;;;;8.48;5.18;;;;;;;10.82;98.90;102490.22;4953114;29;20063;-81
2023/09/30 06:05:05;;;;;;;8.27;5.10;;;;;;;10.81;98.70;102493.69;4944641;29;20024;-82
2023/09/30 06:07:30;;;;;;;7.88;4.93;;;;;;;10.81;98.69;102491.97;4937345;29;20542;-81
2023/09/30 06:09:56;;;;;;;7.80;4.82;;;;;;;10.82;98.68;102498.03;4940375;29;20081;-81
2023/09/30 06:12:21;;;;;;;8.43;4.70;;;;;;;10.83;98.87;102494.56;4955297;28;20060;-81
2023/09/30 06:14:46;;;;;;;9.10;5.00;;;;;;;10.87;99.37;102493.69;4956227;29;20023;-81
2023/09/30 06:17:11;;;;;;;7.40;4.32;;;;;;;10.91;99.91;102483.28;4956213;29;20031;-81
2023/09/30 06:19:37;;;;;;;8.80;5.00;;;;;;;10.96;100.00;102490.22;4955915;29;20209;-81
2023/09/30 06:22:03;;;;;;;9.23;5.10;;;;;;;11.00;100.00;102492.81;4956101;28;20019;-82
2023/09/30 06:24:28;;;;;;;9.00;4.95;;;;;;;11.04;100.00;102498.88;4955396;28;20019;-81
2023/09/30 06:26:53;;;;;;;9.80;5.22;;;;;;;11.08;100.00;102501.50;4952237;28;20039;-81
2023/09/30 06:29:19;;;;;;;9.88;5.20;;;;;;;11.12;100.00;102493.66;4936814;29;20031;-81
2023/09/30 06:31:45;;;;;;;10.25;5.07;;;;;;;11.16;100.00;102484.97;4936933;29;20030;-82
2023/09/30 06:34:11;;;;;;;10.25;5.47;;;;;;;11.20;100.00;102473.69;4939789;29;20176;-82
2023/09/30 06:36:37;;;;;;;8.88;5.38;;;;;;;11.23;100.00;102474.53;4954420;29;20423;-81
2023/09/30 06:39:05;;;;;;;11.50;5.60;;;;;;;11.26;100.00;102478.00;4955921;28;20035;-82
2023/09/30 06:41:31;;;;;;;11.75;5.63;;;;;;;11.28;100.00;102486.69;4955883;28;20027;-82
2023/09/30 06:43:56;;;;;;;9.50;5.30;;;;;;;11.30;100.00;102492.78;4942673;28;20093;-82
2023/09/30 06:46:22;;;;;;;9.80;5.57;;;;;;;11.30;100.00;102491.03;4943885;29;20043;-82
2023/09/30 06:48:51;;;;;;;10.65;5.80;;;;;;;11.31;100.00;102490.16;4942806;29;20034;-81
2023/09/30 06:51:17;;;;;;;11.40;6.07;;;;;;;11.35;100.00;102498.84;4953132;29;20163;-81
2023/09/30 06:53:42;;;;;;;9.52;5.25;;;;;;;11.39;100.00;102498.84;4946581;28;20027;-83
2023/09/30 06:56:08;;;;;;;13.15;6.30;;;;;;;11.46;100.00;102511.84;4957058;28;20023;-81
2023/09/30 06:58:33;;;;;;;11.10;6.00;;;;;;;11.50;100.00;102518.78;4951165;29;20032;-81
2023/09/30 07:00:59;;;;;;;10.30;6.05;;;;;;;11.54;100.00;102523.97;4951387;29;20027;-81
2023/09/30 07:03:24;;;;;;;9.98;5.63;;;;;;;11.59;100.00;102534.41;4948196;28;20042;-81
2023/09/30 07:05:50;;;;;;;10.50;5.70;;;;;;;11.65;100.00;102546.56;4942235;28;20024;-81
2023/09/30 07:08:18;;;;;;;12.02;5.82;;;;;;;11.69;100.00;102549.16;4945806;29;20019;-81
2023/09/30 07:10:45;;;;;;;10.73;6.07;;;;;;;11.73;100.00;102546.53;4950985;28;20031;-81
2023/09/30 07:13:11;;;;;;;10.27;5.60;;;;;;;11.79;100.00;102546.50;4949123;28;20019;-82
2023/09/30 07:15:36;;;;;;;11.30;5.70;;;;;;;11.82;100.00;102547.38;4951357;28;20067;-81
2023/09/30 07:18:02;;;;;;;10.73;5.80;;;;;;;11.89;100.00;102547.34;4945430;28;20467;-81
2023/09/30 07:20:29;;;;;;;13.25;5.55;;;;;;;11.94;100.00;102546.47;4947953;28;21376;-81
2023/09/30 07:22:54;;;;;;;11.68;6.00;;;;;;;12.01;100.00;102546.44;4949332;28;20106;-81
2023/09/30 07:25:19;;;;;;;11.32;6.07;;;;;;;12.05;100.00;102548.19;4942818;28;20553;-81
2023/09/30 07:27:45;;;;;;;10.88;5.82;;;;;;;12.11;100.00;102542.94;4943519;29;20038;-81
2023/09/30 07:30:14;;;;;;;10.95;6.10;;;;;;;12.17;100.00;102553.34;4945797;28;20038;-81
2023/09/30 07:32:41;;;;;;;9.82;5.88;;;;;;;12.22;100.00;102562.00;4950754;29;20039;-81
2023/09/30 07:35:07;;;;;;;11.98;5.72;;;;;;;12.30;100.00;102575.88;4947409;29;20044;-81
2023/09/30 07:37:33;;;;;;;10.98;5.85;;;;;;;12.37;100.00;102588.91;4943039;29;20028;-81
2023/09/30 07:39:59;;;;;;;13.57;6.38;;;;;;;12.45;100.00;102585.38;4948311;29;20494;-81
2023/09/30 07:42:24;;;;;;;11.90;5.93;;;;;;;12.52;100.00;102586.22;4945106;28;20074;-82
2023/09/30 07:44:50;;;;;;;11.30;6.10;;;;;;;12.58;100.00;102590.53;4946878;29;20042;-81
2023/09/30 07:47:15;;;;;;;13.35;5.75;;;;;;;12.63;100.00;102593.97;4950823;29;20460;-82
2023/09/30 07:49:40;;;;;;;10.68;5.65;;;;;;;12.69;100.00;102598.28;4953376;29;20033;-81
2023/09/30 07:52:05;;;;;;;12.23;5.78;;;;;;;12.73;100.00;102597.41;4940985;28;20039;-81
2023/09/30 07:54:31;;;;;;;12.35;5.90;;;;;;;12.77;100.00;102593.91;4936792;29;20047;-81
2023/09/30 07:56:57;;;;;;;12.65;5.90;;;;;;;12.81;100.00;102587.75;4949746;29;20051;-81
2023/09/30 07:59:22;;;;;;;11.48;5.82;;;;;;;12.85;100.00;102584.25;4946459;29;20110;-81
2023/09/30 08:01:48;;;;;;;12.20;6.10;;;;;;;12.90;100.00;102576.38;4949661;29;20419;-81
2023/09/30 08:04:13;;;;;;;12.75;5.68;;;;;;;12.95;100.00;102579.81;4940382;28;20027;-81
2023/09/30 08:06:39;;;;;;;11.43;6.30;;;;;;;13.01;100.00;102579.78;4951692;29;20081;-81
2023/09/30 08:09:09;;;;;;;12.10;6.40;;;;;;;13.05;100.00;102578.00;4940536;28;20079;-81
2023/09/30 08:11:36;;;;;;;12.40;5.90;;;;;;;13.11;100.00;102577.97;4936595;29;20031;-81
2023/09/30 08:14:06;;;;;;;11.70;6.05;;;;;;;13.18;100.00;102579.63;4944190;28;20479;-81
2023/09/30 08:16:31;;;;;;;11.27;5.55;;;;;;;13.25;100.00;102588.28;4936532;29;20023;-81
2023/09/30 08:18:56;;;;;;;11.05;5.68;;;;;;;13.31;100.00;102579.53;4946494;29;20027;-81
2023/09/30 08:21:22;;;;;;;12.30;6.18;;;;;;;13.35;100.00;102573.38;4942809;29;20065;-81
2023/09/30 08:23:47;;;;;;;14.27;5.40;;;;;;;13.40;100.00;102576.88;4953191;28;20090;-82
2023/09/30 08:26:12;;;;;;;10.55;5.15;;;;;;;13.44;100.00;102577.69;4939391;29;20029;-82
2023/09/30 08:28:38;;;;;;;12.48;5.25;;;;;;;13.47;100.00;102568.09;4949681;29;20031;-82
2023/09/30 08:31:05;;;;;;;11.68;5.30;;;;;;;13.50;100.00;102568.03;4942890;29;20038;-81
2023/09/30 08:33:31;;;;;;;12.77;5.55;;;;;;;13.58;100.00;102569.72;4945292;28;20379;-82
2023/09/30 08:35:58;;;;;;;12.60;5.60;;;;;;;13.62;100.00;102571.41;4942820;29;20044;-81
2023/09/30 08:38:24;;;;;;;10.52;5.60;;;;;;;13.67;100.00;102559.13;4943464;28;20024;-82
2023/09/30 08:40:52;;;;;;;11.40;5.55;;;;;;;13.71;100.00;102554.75;4938184;29;20554;-81
2023/09/30 08:43:27;;;;;;;10.40;5.18;;;;;;;13.74;100.00;102560.81;4944158;29;20106;-81
2023/09/30 08:45:53;;;;;;;11.32;5.43;;;;;;;13.81;100.00;102559.00;4949095;29;20031;-82
2023/09/30 08:48:20;;;;;;;8.95;4.90;;;;;;;13.88;100.00;102563.28;4935124;29;20086;-82
2023/09/30 08:50:46;;;;;;;12.60;5.45;;;;;;;13.93;100.00;102558.84;4948109;28;20027;-82
2023/09/30 08:53:14;;;;;;;9.88;5.13;;;;;;;14.01;100.00;102561.34;4938985;29;20023;-82
2023/09/30 08:55:43;;;;;;;11.60;5.10;;;;;;;14.06;100.00;102562.19;4943831;29;20027;-82
2023/09/30 08:58:08;;;;;;;14.63;5.00;;;;;;;14.13;100.00;102546.41;4943268;29;20172;-82
2023/09/30 09:00:34;;;;;;;16.20;5.05;;;;;;;14.19;100.00;102541.94;4947667;29;20848;-82
2023/09/30 09:02:59;;;;;;;13.23;4.82;;;;;;;14.25;100.00;102557.59;4946664;28;20046;-83
2023/09/30 09:05:24;;;;;;;10.93;5.05;;;;;;;14.33;100.00;102554.84;4948302;28;20038;-84
2023/09/30 09:07:50;;;;;;;10.98;5.30;;;;;;;14.36;100.00;102546.94;4949750;29;20059;-83
2023/09/30 09:10:15;;;;;;;14.18;5.35;;;;;;;14.44;100.00;102557.28;4949665;28;20034;-82
2023/09/30 09:12:42;;;;;;;14.27;5.20;;;;;;;14.48;100.00;102560.75;4947032;28;20043;-83
2023/09/30 09:15:19;;;;;;;12.85;5.35;;;;;;;14.53;100.00;102569.38;4944325;28;20043;-82
2023/09/30 09:17:45;;;;;;;10.23;4.78;;;;;;;14.58;100.00;102585.91;4948909;28;20102;-83
2023/09/30 09:20:14;;;;;;;10.65;4.88;;;;;;;14.64;100.00;102585.84;4948063;28;20483;-82
2023/09/30 09:22:44;;;;;;;12.90;4.90;;;;;;;14.69;100.00;102588.41;4948553;29;20533;-82
2023/09/30 09:25:10;;;;;;;9.02;4.28;;;;;;;14.73;99.52;102600.59;4947216;28;20083;-82
2023/09/30 09:27:36;;;;;;;10.68;4.50;;;;;;;14.78;99.68;102592.66;4947638;29;20126;-82
2023/09/30 09:30:21;;;;;;;12.07;4.45;;;;;;;14.84;100.00;102597.81;4949936;28;20109;-83
2023/09/30 09:33:01;;;;;;;11.85;4.40;;;;;;;14.87;100.00;102597.72;4947525;28;20099;-82
2023/09/30 09:35:30;;;;;;;11.82;4.60;;;;;;;14.91;99.49;102602.03;4948971;28;20050;-82
2023/09/30 09:38:08;;;;;;;10.55;4.18;;;;;;;14.95;98.57;102610.72;4947581;28;20478;-82
2023/09/30 09:40:35;;;;;;;8.07;4.20;;;;;;;14.99;98.13;102623.75;4947132;29;20039;-82
2023/09/30 09:43:04;;;;;;;12.88;4.07;;;;;;;15.04;97.84;102626.31;4946573;28;20054;-82
2023/09/30 09:45:32;;;;;;;9.23;3.92;;;;;;;15.11;98.34;102621.81;4948501;29;20394;-83
2023/09/30 09:47:58;;;;;;;8.10;3.50;;;;;;;15.16;96.42;102622.63;4946642;28;20498;-83
2023/09/30 09:50:24;;;;;;;7.22;3.20;;;;;;;15.20;95.33;102623.44;4949338;28;20035;-83
2023/09/30 09:52:58;;;;;;;8.15;3.58;;;;;;;15.24;94.82;102623.34;4951598;29;20058;-83
2023/09/30 09:55:25;;;;;;;7.35;3.00;;;;;;;15.28;95.12;102614.56;4949882;29;20031;-82
2023/09/30 09:57:51;;;;;;;7.97;3.40;;;;;;;15.34;94.38;102624.06;4948741;28;20486;-83
2023/09/30 10:00:19;;;;;;;10.68;3.35;;;;;;;15.39;93.37;102616.09;4954264;29;20127;-83
2023/09/30 10:02:46;;;;;;;10.75;3.70;;;;;;;15.43;93.03;102623.03;4953131;28;20035;-83
2023/09/30 10:05:12;;;;;;;11.90;4.15;;;;;;;15.47;92.89;102625.56;4941965;28;20024;-83
2023/09/30 10:07:42;;;;;;;8.57;3.05;;;;;;;15.53;91.54;102629.88;4946457;29;20376;-83
2023/09/30 10:10:15;;;;;;;9.70;3.33;;;;;;;15.56;90.99;102621.91;4943374;29;20106;-83
2023/09/30 10:12:40;;;;;;;9.68;3.60;;;;;;;15.59;91.56;102627.13;4949001;29;20027;-83
2023/09/30 10:15:24;;;;;;;7.65;3.40;;;;;;;15.67;92.60;102631.38;4949946;28;20030;-82
2023/09/30 10:18:12;;;;;;;9.07;3.60;;;;;;;15.70;92.08;102631.31;4948374;29;20039;-83
2023/09/30 10:20:44;;;;;;;7.43;3.47;;;;;;;15.73;90.99;102646.97;4946702;29;20031;-83
2023/09/30 10:23:33;;;;;;;10.10;3.65;;;;;;;15.80;91.82;102645.13;4948022;28;20035;-83
2023/09/30 10:26:07;;;;;;;9.77;3.28;;;;;;;15.86;90.87;102639.78;4953554;28;20430;-82
2023/09/30 10:28:37;;;;;;;9.98;3.60;;;;;;;15.89;88.35;102631.84;4950357;29;20043;-82
2023/09/30 10:31:19;;;;;;;7.85;3.20;;;;;;;15.95;89.36;102620.38;4944670;29;20031;-82
2023/09/30 10:34:02;;;;;;;8.32;3.67;;;;;;;15.98;90.01;102615.06;4950124;29;20031;-82
2023/09/30 10:36:32;;;;;;;14.95;4.55;;;;;;;16.00;89.34;102618.53;4951510;28;20042;-82
2023/09/30 10:38:57;;;;;;;8.77;3.97;;;;;;;16.01;88.61;102599.25;4951670;29;20394;-83
2023/09/30 10:41:48;;;;;;;9.48;3.92;;;;;;;16.05;89.15;102596.53;4951952;29;20027;-82
2023/09/30 10:44:40;;;;;;;10.32;4.15;;;;;;;16.10;89.10;102596.41;4949968;29;20121;-83
2023/09/30 10:47:24;;;;;;;8.75;3.90;;;;;;;16.10;87.86;102598.19;4947706;29;20061;-83
2023/09/30 10:49:49;;;;;;;13.68;4.20;;;;;;;16.12;86.60;102585.91;4949330;29;20039;-83
2023/09/30 10:52:23;;;;;;;7.50;3.92;;;;;;;16.15;86.95;102597.19;4946217;28;20030;-83
2023/09/30 10:54:49;;;;;;;8.60;3.38;;;;;;;16.17;86.67;102595.41;4949182;29;20019;-83
2023/09/30 10:57:27;;;;;;;7.53;3.47;;;;;;;16.21;87.07;102597.09;4949008;29;20038;-83
2023/09/30 11:00:11;;;;;;;6.43;3.13;;;;;;;16.25;85.97;102590.00;4948679;28;20038;-83
2023/09/30 11:02:48;;;;;;;8.43;3.20;;;;;;;16.30;84.47;102592.50;4951286;28;20078;-84
2023/09/30 11:05:14;;;;;;;6.50;3.25;;;;;;;16.33;82.86;102581.94;4948359;28;20026;-84
2023/09/30 11:07:41;;;;;;;9.40;3.30;;;;;;;16.38;84.53;102580.09;4948685;28;20035;-82
2023/09/30 11:10:07;;;;;;;5.65;2.67;;;;;;;16.42;81.21;102594.00;4949277;29;20562;-85
2023/09/30 11:12:33;;;;;;;7.38;2.80;;;;;;;16.46;81.21;102587.78;4944608;28;20126;-83
2023/09/30 11:15:01;;;;;;;5.55;2.58;;;;;;;16.52;82.06;102580.63;4945948;28;20366;-83
2023/09/30 11:17:26;;;;;;;5.32;2.53;;;;;;;16.56;80.56;102585.81;4949740;28;20054;-84
2023/09/30 11:19:52;;;;;;;6.60;2.60;;;;;;;16.58;81.42;102587.50;4953380;29;20023;-84